world map with KKN marked

KKN - Airport

This information may not be accurate or current and is not valid for navigation or flight planning. No warranty of fitness for any purpose is made or implied.

flag of Norway

Donate via PayPal

Additional information is available on the NEW Great Circle Mapper

Location
City:  Kirkenes, Norway
Name:Høybuktmoen
ICAO / IATA:ENKR / KKN

Details
Type:Airport (Aerodrome, Airfield)
Use:Public/Civil
Latitude:69°43'33"N (69.725781)
Longitude:29°53'29"E (29.891295)
Datum:other
Elevation:283 ft (86 m)
Runways:1
Longest:6939 × 148 ft (2115 × 45 m)

Time
Timezone:UTC+1 (DST+4)
Local Time:

Weather
METAR:ENKR  041350Z 16005KT 9999 VCFG FEW000 M28/M31 Q1025 RMK WIND 731FT 17003KT
TAF:ENKR  (expired)

Related Locations
Nearby:
Farthest:NZWD: 11463 mi / 18448 km
McMurdo Station [Williams Field], Ross Island, AQ

Find:

   beyond  
but within

Other Information
Maps:
Sources:

  


 


Great Circle Mapper   Great Circle Mapper
Great Circle Mapper FAQ   Great Circle Mapper FAQ
  Karl's Home Page
KLS²   KLS² Home
   GC on Facebook
Airlines of the World   Airlines of the World
Donate via PayPal


Copyright © 2004-2019, Karl L. Swartz. All rights reserved.
All trademarks mentioned herein belong to their respective owners.

Please see credits for attribution and copyright information.

Karl Swartz <karl@kls2.com>
  Powered by FreeBSD
Valid HTML 4.01!
Labeled with ICRA
hCard Microformat
Geo Microformat